createdAt,value
2022-12-08T00:00:02.416Z,74.11
2022-12-08T00:01:06.568Z,75.08
2022-12-08T00:02:10.117Z,74.71
2022-12-08T00:03:14.325Z,73.90
2022-12-08T00:04:17.904Z,74.40
2022-12-08T00:05:38.665Z,74.22
2022-12-08T00:07:01.153Z,73.95
2022-12-08T00:08:22.168Z,73.90
2022-12-08T00:09:36.436Z,74.49
2022-12-08T00:10:51.044Z,73.93
2022-12-08T00:11:57.518Z,74.26
2022-12-08T00:12:59.874Z,75.02
2022-12-08T00:14:03.537Z,74.58
2022-12-08T00:15:07.093Z,74.71
2022-12-08T00:16:11.044Z,75.08
2022-12-08T00:17:16.680Z,74.58
2022-12-08T00:18:20.446Z,74.51
2022-12-08T00:19:24.525Z,74.40
2022-12-08T00:20:26.892Z,74.26
2022-12-08T00:21:30.811Z,74.58
2022-12-08T00:22:34.213Z,74.34
2022-12-08T00:23:36.585Z,75.08
2022-12-08T00:24:41.386Z,75.10
2022-12-08T00:25:43.747Z,74.46
2022-12-08T00:26:47.113Z,74.52
2022-12-08T00:27:49.429Z,75.05
2022-12-08T00:28:53.023Z,74.57
2022-12-08T00:29:55.579Z,75.15
2022-12-08T00:30:58.996Z,75.60
2022-12-08T00:32:02.612Z,75.32
2022-12-08T00:33:05.223Z,75.35
2022-12-08T00:34:10.311Z,75.27
2022-12-08T00:35:12.844Z,75.17
2022-12-08T00:36:16.544Z,76.19
2022-12-08T00:37:19.239Z,75.94
2022-12-08T00:38:22.758Z,76.04
2022-12-08T00:39:25.156Z,75.94
2022-12-08T00:40:28.966Z,75.04
2022-12-08T00:41:49.684Z,75.34
2022-12-08T00:42:53.103Z,75.12
2022-12-08T00:43:55.439Z,74.75
2022-12-08T00:44:59.053Z,74.90
2022-12-08T00:46:01.429Z,75.49
2022-12-08T00:47:04.913Z,74.61
2022-12-08T00:48:07.702Z,75.03
2022-12-08T00:49:13.046Z,75.05
2022-12-08T00:50:15.418Z,74.56
2022-12-08T00:51:18.783Z,75.66
2022-12-08T00:52:21.536Z,75.13
2022-12-08T00:53:25.111Z,75.04
2022-12-08T00:54:27.722Z,74.79
2022-12-08T00:55:31.089Z,74.32
2022-12-08T00:56:34.232Z,74.48
2022-12-08T00:57:37.665Z,74.97
2022-12-08T00:58:40.017Z,74.88
2022-12-08T00:59:43.421Z,75.09
2022-12-08T01:00:45.864Z,74.89
2022-12-08T01:01:50.028Z,74.64
2022-12-08T01:02:52.427Z,74.43
2022-12-08T01:03:55.851Z,74.28
2022-12-08T01:04:59.556Z,74.68
2022-12-08T01:06:04.543Z,74.55
2022-12-08T01:07:06.970Z,74.62
2022-12-08T01:08:10.938Z,75.08
2022-12-08T01:09:14.635Z,74.85
2022-12-08T01:10:18.771Z,75.80
2022-12-08T01:11:21.195Z,75.65
2022-12-08T01:12:24.654Z,76.44
2022-12-08T01:13:27.208Z,76.63
2022-12-08T01:14:30.603Z,76.15
2022-12-08T01:15:33.276Z,76.30
2022-12-08T01:16:38.259Z,76.25
2022-12-08T01:17:42.237Z,76.95
2022-12-08T01:18:44.662Z,77.22
2022-12-08T01:19:48.255Z,76.67
2022-12-08T01:20:52.010Z,76.51
2022-12-08T01:21:55.472Z,76.30
2022-12-08T01:22:57.801Z,75.86
2022-12-08T01:24:03.014Z,76.10
2022-12-08T01:25:06.807Z,76.01
2022-12-08T01:26:13.040Z,76.34
2022-12-08T01:27:16.247Z,76.21
2022-12-08T01:28:19.614Z,75.88
2022-12-08T01:29:23.109Z,75.21
2022-12-08T01:30:27.043Z,75.66
2022-12-08T01:31:29.699Z,74.90
2022-12-08T01:32:33.077Z,74.86
2022-12-08T01:33:35.388Z,74.75
2022-12-08T01:34:39.236Z,74.09
2022-12-08T01:35:41.585Z,74.02
2022-12-08T01:36:46.450Z,73.62
2022-12-08T01:37:50.532Z,73.52
2022-12-08T01:38:55.104Z,72.98
2022-12-08T01:39:57.415Z,72.86
2022-12-08T01:41:01.296Z,72.56
2022-12-08T01:42:04.885Z,73.01
2022-12-08T01:43:09.557Z,72.63
2022-12-08T01:45:04.482Z,72.73
2022-12-08T01:46:07.082Z,72.92
2022-12-08T01:47:10.894Z,73.40
2022-12-08T01:48:20.457Z,73.47
2022-12-08T01:49:26.506Z,73.19
2022-12-08T01:50:31.088Z,72.75
2022-12-08T01:51:38.859Z,73.26
2022-12-08T01:52:48.604Z,73.06
2022-12-08T01:53:51.320Z,72.61
2022-12-08T01:55:00.199Z,72.79
2022-12-08T01:56:10.323Z,72.63
2022-12-08T01:57:18.252Z,72.35
2022-12-08T01:58:26.377Z,72.14
2022-12-08T01:59:32.739Z,71.95
2022-12-08T02:00:35.174Z,71.90
2022-12-08T02:01:39.168Z,72.25
2022-12-08T02:02:53.834Z,73.26
2022-12-08T02:04:00.565Z,73.24
2022-12-08T02:05:05.191Z,73.54
2022-12-08T02:06:07.778Z,73.74
2022-12-08T02:07:13.944Z,74.50
2022-12-08T02:08:18.590Z,74.61
2022-12-08T02:09:22.861Z,74.12
2022-12-08T02:10:28.796Z,73.80
2022-12-08T02:11:32.128Z,73.63
2022-12-08T02:12:34.544Z,74.73
2022-12-08T02:13:38.314Z,74.33
2022-12-08T02:14:41.206Z,74.85
2022-12-08T02:15:59.339Z,74.94
2022-12-08T02:17:15.000Z,75.31
2022-12-08T02:18:33.334Z,75.61
2022-12-08T02:20:13.574Z,76.19
2022-12-08T02:21:21.978Z,75.74
2022-12-08T02:22:33.266Z,75.62
2022-12-08T02:23:48.631Z,76.21
2022-12-08T02:24:58.741Z,76.16
2022-12-08T02:26:34.802Z,76.71
2022-12-08T02:27:47.813Z,76.73
2022-12-08T02:29:26.480Z,77.44
2022-12-08T02:30:38.683Z,77.47
2022-12-08T02:31:55.865Z,77.09
2022-12-08T02:33:50.345Z,78.24
2022-12-08T02:35:00.044Z,76.97
2022-12-08T02:36:13.751Z,76.57
2022-12-08T02:37:23.433Z,76.63
2022-12-08T02:38:45.558Z,76.72
2022-12-08T02:39:58.505Z,76.87
2022-12-08T02:41:18.642Z,77.56
2022-12-08T02:42:27.957Z,77.26
2022-12-08T02:43:37.435Z,77.14
2022-12-08T02:44:44.099Z,76.77
2022-12-08T02:45:51.955Z,76.79
2022-12-08T02:46:59.994Z,76.80
2022-12-08T02:48:02.753Z,77.12
2022-12-08T02:49:07.092Z,77.17
2022-12-08T02:50:11.300Z,76.95
2022-12-08T02:51:14.715Z,76.84
2022-12-08T02:52:40.312Z,77.14
2022-12-08T02:53:44.742Z,77.16
2022-12-08T02:54:51.780Z,76.77
2022-12-08T02:56:01.779Z,76.54
2022-12-08T02:57:26.876Z,76.38
2022-12-08T02:59:04.354Z,76.09
2022-12-08T03:00:09.269Z,75.88
2022-12-08T03:01:29.310Z,76.21
2022-12-08T03:02:45.981Z,77.46
2022-12-08T03:03:54.996Z,76.77
2022-12-08T03:05:05.752Z,77.00
2022-12-08T03:06:22.904Z,76.98
2022-12-08T03:07:32.502Z,76.71
2022-12-08T03:08:43.166Z,76.73
2022-12-08T03:09:52.923Z,76.68
2022-12-08T03:11:03.692Z,77.11
2022-12-08T03:12:13.643Z,77.73
2022-12-08T03:13:20.903Z,77.44
2022-12-08T03:14:24.072Z,76.95
2022-12-08T03:15:27.985Z,77.25
2022-12-08T03:16:32.451Z,77.32
2022-12-08T03:17:38.552Z,77.21
2022-12-08T03:18:47.865Z,77.77
2022-12-08T03:19:51.544Z,76.87
2022-12-08T03:20:54.201Z,76.66
2022-12-08T03:22:03.399Z,77.65
2022-12-08T03:23:09.779Z,77.92
2022-12-08T03:24:14.422Z,77.61
2022-12-08T03:25:20.190Z,77.15
2022-12-08T03:26:30.376Z,77.64
2022-12-08T03:27:33.155Z,77.82
2022-12-08T03:28:36.584Z,77.78
2022-12-08T03:29:40.144Z,77.56
2022-12-08T03:30:45.177Z,77.22
2022-12-08T03:31:55.207Z,76.92
2022-12-08T03:33:07.339Z,77.35
2022-12-08T03:34:13.515Z,76.92
2022-12-08T03:35:18.422Z,77.91
2022-12-08T03:36:22.351Z,78.47
2022-12-08T03:37:27.808Z,78.10
2022-12-08T03:38:39.733Z,77.79
2022-12-08T03:39:42.466Z,77.60
2022-12-08T03:41:08.273Z,77.64
2022-12-08T03:42:10.919Z,77.24
2022-12-08T03:43:14.408Z,77.80
2022-12-08T03:44:16.715Z,77.30
2022-12-08T03:45:21.664Z,77.40
2022-12-08T03:47:29.151Z,77.12
2022-12-08T03:48:31.748Z,77.01
2022-12-08T03:49:35.195Z,76.67
2022-12-08T03:50:37.517Z,76.92
2022-12-08T03:51:41.015Z,77.03
2022-12-08T03:52:44.785Z,76.97
2022-12-08T03:53:48.822Z,76.83
2022-12-08T03:54:51.375Z,76.78
2022-12-08T03:55:55.601Z,76.44
2022-12-08T03:56:59.044Z,76.20
2022-12-08T03:58:01.393Z,76.17
2022-12-08T03:59:05.182Z,77.21
2022-12-08T04:00:09.641Z,76.51
2022-12-08T04:01:13.882Z,76.62
2022-12-08T04:02:17.387Z,77.29
2022-12-08T04:03:19.978Z,76.91
2022-12-08T04:04:23.704Z,76.58
2022-12-08T04:05:26.087Z,76.10
2022-12-08T04:06:29.669Z,76.62
2022-12-08T04:07:32.108Z,76.03
2022-12-08T04:08:37.030Z,75.69
2022-12-08T04:09:39.441Z,75.96
2022-12-08T04:10:42.817Z,75.95
2022-12-08T04:11:46.334Z,75.43
2022-12-08T04:12:48.671Z,75.35
2022-12-08T04:13:52.023Z,75.35
2022-12-08T04:14:54.528Z,75.60
2022-12-08T04:15:58.010Z,75.28
2022-12-08T04:17:00.465Z,75.23
2022-12-08T04:18:04.085Z,75.38
2022-12-08T04:19:07.870Z,76.39
2022-12-08T04:20:11.448Z,76.75
2022-12-08T04:21:15.451Z,76.71
2022-12-08T04:22:18.035Z,77.28
2022-12-08T04:23:21.539Z,77.05
2022-12-08T04:24:26.551Z,76.45
2022-12-08T04:25:29.126Z,76.61
2022-12-08T04:26:32.513Z,76.62
2022-12-08T04:27:34.994Z,76.64
2022-12-08T04:28:38.507Z,76.77
2022-12-08T04:29:41.104Z,76.81
2022-12-08T04:30:44.891Z,76.42
2022-12-08T04:31:47.259Z,76.91
2022-12-08T04:32:50.739Z,76.50
2022-12-08T04:33:54.096Z,76.29
2022-12-08T04:34:56.450Z,75.78
2022-12-08T04:36:00.141Z,75.42
2022-12-08T04:37:02.576Z,74.92
2022-12-08T04:38:06.392Z,74.60
2022-12-08T04:39:09.834Z,74.24
2022-12-08T04:40:14.888Z,74.62
2022-12-08T04:41:18.733Z,75.36
2022-12-08T04:42:22.675Z,75.85
2022-12-08T04:43:26.974Z,75.28
2022-12-08T04:44:29.566Z,75.96
2022-12-08T04:45:33.290Z,75.78
2022-12-08T04:46:42.986Z,75.75
2022-12-08T04:47:47.661Z,75.61
2022-12-08T04:48:51.163Z,75.96
2022-12-08T04:49:53.581Z,75.66
2022-12-08T04:50:57.468Z,75.28
2022-12-08T04:51:59.925Z,75.82
2022-12-08T04:53:03.515Z,76.13
2022-12-08T04:54:05.988Z,76.00
2022-12-08T04:55:10.063Z,76.53
2022-12-08T04:56:16.046Z,76.51
2022-12-08T04:57:18.359Z,76.88
2022-12-08T04:58:22.398Z,76.10
2022-12-08T04:59:24.762Z,77.04
2022-12-08T05:00:28.452Z,76.83
2022-12-08T05:01:30.864Z,76.73
2022-12-08T05:02:34.477Z,76.63
2022-12-08T05:03:38.349Z,76.48
2022-12-08T05:04:42.247Z,76.43
2022-12-08T05:05:44.974Z,76.83
2022-12-08T05:06:48.587Z,77.09
2022-12-08T05:07:51.026Z,77.37
2022-12-08T05:08:54.519Z,76.70
2022-12-08T05:09:56.838Z,77.36
2022-12-08T05:11:04.412Z,77.43
2022-12-08T05:12:08.634Z,77.34
2022-12-08T05:13:11.998Z,77.37
2022-12-08T05:14:15.659Z,77.29
2022-12-08T05:15:19.426Z,77.07
2022-12-08T05:16:23.064Z,75.83
2022-12-08T05:17:25.543Z,75.64
2022-12-08T05:18:29.001Z,75.25
2022-12-08T05:19:31.384Z,75.21
2022-12-08T05:20:34.948Z,75.91
2022-12-08T05:21:37.477Z,76.24
2022-12-08T05:22:40.862Z,76.92
2022-12-08T05:23:43.138Z,76.97
2022-12-08T05:24:47.800Z,76.48
2022-12-08T05:25:50.538Z,76.15
2022-12-08T05:26:53.905Z,76.21
2022-12-08T05:28:17.618Z,76.12
2022-12-08T05:29:21.281Z,75.77
2022-12-08T05:30:23.661Z,76.38
2022-12-08T05:31:27.090Z,76.79
2022-12-08T05:32:30.473Z,76.96
2022-12-08T05:33:32.770Z,76.64
2022-12-08T05:34:36.243Z,76.30
2022-12-08T05:35:38.966Z,76.29
2022-12-08T05:36:42.371Z,75.85
2022-12-08T05:37:44.943Z,76.32
2022-12-08T05:38:48.883Z,75.52
2022-12-08T05:39:51.223Z,75.66
2022-12-08T05:40:54.644Z,75.90
2022-12-08T05:41:56.977Z,76.29
2022-12-08T05:43:01.967Z,76.93
2022-12-08T05:44:04.390Z,77.61
2022-12-08T05:45:08.825Z,76.97
2022-12-08T05:46:11.640Z,76.64
2022-12-08T05:47:15.114Z,76.46
2022-12-08T05:48:17.409Z,76.33
2022-12-08T05:49:20.779Z,76.76
2022-12-08T05:50:23.134Z,76.70
2022-12-08T05:51:26.686Z,76.47
2022-12-08T05:52:29.037Z,76.76
2022-12-08T05:53:32.644Z,77.55
2022-12-08T05:54:34.973Z,77.71
2022-12-08T05:55:38.386Z,77.42
2022-12-08T05:56:40.901Z,76.83
2022-12-08T05:57:44.327Z,76.75
2022-12-08T05:58:48.955Z,77.13
2022-12-08T05:59:52.443Z,77.19
2022-12-08T06:00:54.836Z,76.58
2022-12-08T06:01:58.321Z,76.45
2022-12-08T06:03:01.177Z,75.80
2022-12-08T06:04:05.713Z,75.38
2022-12-08T06:05:08.672Z,76.07
2022-12-08T06:06:12.062Z,76.71
2022-12-08T06:07:16.259Z,76.40
2022-12-08T06:08:18.969Z,76.22
2022-12-08T06:09:22.508Z,77.25
2022-12-08T06:10:24.899Z,77.67
2022-12-08T06:11:31.105Z,77.15
2022-12-08T06:12:33.484Z,76.51
2022-12-08T06:13:36.989Z,77.11
2022-12-08T06:14:41.952Z,77.50
2022-12-08T06:15:44.257Z,77.24
2022-12-08T06:16:47.624Z,77.88
2022-12-08T06:17:50.046Z,77.79
2022-12-08T06:18:53.744Z,77.55
2022-12-08T06:19:57.127Z,77.61
2022-12-08T06:21:05.245Z,78.35
2022-12-08T06:22:07.680Z,77.78
2022-12-08T06:23:11.075Z,77.21
2022-12-08T06:24:14.510Z,77.01
2022-12-08T06:25:17.256Z,77.34
2022-12-08T06:26:21.281Z,77.87
2022-12-08T06:27:24.704Z,77.55
2022-12-08T06:28:27.124Z,77.56
2022-12-08T06:29:30.618Z,77.51
2022-12-08T06:30:34.475Z,77.34
2022-12-08T06:31:38.302Z,77.75
2022-12-08T06:32:40.906Z,78.26
2022-12-08T06:33:44.992Z,78.50
2022-12-08T06:34:48.354Z,78.76
2022-12-08T06:35:50.864Z,78.35
2022-12-08T06:36:54.453Z,78.51
2022-12-08T06:37:56.763Z,77.79
2022-12-08T06:39:00.391Z,78.56
2022-12-08T06:40:03.373Z,79.07
2022-12-08T06:41:07.661Z,79.08
2022-12-08T06:42:28.185Z,78.78
2022-12-08T06:43:31.558Z,78.98
2022-12-08T06:44:34.883Z,79.08
2022-12-08T06:45:42.635Z,78.40
2022-12-08T06:46:46.101Z,78.81
2022-12-08T06:47:48.412Z,79.05
2022-12-08T06:48:51.899Z,78.81
2022-12-08T06:49:54.245Z,78.80
2022-12-08T06:50:57.684Z,79.36
2022-12-08T06:52:00.365Z,79.44
2022-12-08T06:53:05.615Z,78.69
2022-12-08T06:54:08.452Z,79.21
2022-12-08T06:55:24.588Z,79.36
2022-12-08T06:56:35.326Z,79.52
2022-12-08T06:57:37.708Z,79.90
2022-12-08T06:58:41.326Z,79.83
2022-12-08T06:59:43.743Z,79.78
2022-12-08T07:00:48.931Z,79.27
2022-12-08T07:01:51.691Z,79.53
2022-12-08T07:02:55.158Z,79.48
2022-12-08T07:03:58.572Z,79.96
2022-12-08T07:05:00.947Z,79.25
2022-12-08T07:06:04.756Z,79.63
2022-12-08T07:07:08.211Z,79.36
2022-12-08T07:08:10.588Z,79.86
2022-12-08T07:09:14.015Z,79.10
2022-12-08T07:10:16.406Z,79.14
2022-12-08T07:11:22.226Z,78.85
2022-12-08T07:12:25.135Z,79.35
2022-12-08T07:13:28.514Z,78.99
2022-12-08T07:14:31.188Z,78.43
2022-12-08T07:15:34.563Z,79.37
2022-12-08T07:16:40.385Z,78.79
2022-12-08T07:17:42.805Z,78.88
2022-12-08T07:18:46.173Z,78.76
2022-12-08T07:19:48.525Z,78.21
2022-12-08T07:20:51.831Z,79.06
2022-12-08T07:21:54.167Z,79.50
2022-12-08T07:22:57.708Z,79.52
2022-12-08T07:24:00.284Z,78.97
2022-12-08T07:25:04.304Z,78.25
2022-12-08T07:26:09.580Z,78.36
2022-12-08T07:27:12.012Z,77.58
2022-12-08T07:28:15.512Z,77.86
2022-12-08T07:29:23.117Z,78.13
2022-12-08T07:30:28.720Z,77.85
2022-12-08T07:31:32.248Z,77.78
2022-12-08T07:32:37.226Z,78.04
2022-12-08T07:33:40.684Z,77.67
2022-12-08T07:34:43.173Z,77.99
2022-12-08T07:35:49.422Z,77.98
2022-12-08T07:36:51.941Z,77.87
2022-12-08T07:37:55.352Z,77.54
2022-12-08T07:38:57.742Z,76.88
2022-12-08T07:40:01.373Z,76.84
2022-12-08T07:41:04.879Z,76.63
2022-12-08T07:42:07.236Z,76.71
2022-12-08T07:43:10.733Z,76.77
2022-12-08T07:44:13.211Z,76.53
2022-12-08T07:45:16.664Z,76.74
2022-12-08T07:46:22.382Z,76.81
2022-12-08T07:47:26.181Z,76.89
2022-12-08T07:48:31.447Z,76.61
2022-12-08T07:49:33.843Z,77.25
2022-12-08T07:50:37.552Z,76.82
2022-12-08T07:51:40.018Z,77.24
2022-12-08T07:52:43.394Z,77.38
2022-12-08T07:53:53.431Z,76.83
2022-12-08T07:54:58.160Z,76.93
2022-12-08T07:56:00.626Z,76.75
2022-12-08T07:57:06.165Z,76.82
2022-12-08T07:58:08.942Z,76.57
2022-12-08T07:59:12.312Z,76.42
2022-12-08T08:00:15.870Z,76.72
2022-12-08T08:01:24.922Z,76.43
2022-12-08T08:02:27.398Z,75.95
2022-12-08T08:03:32.931Z,76.22
2022-12-08T08:04:35.384Z,75.71
2022-12-08T08:05:39.044Z,75.65
2022-12-08T08:06:42.451Z,75.56
2022-12-08T08:07:46.807Z,75.23
2022-12-08T08:08:50.218Z,74.95
2022-12-08T08:09:52.799Z,75.66
2022-12-08T08:10:56.417Z,75.37
2022-12-08T08:12:28.974Z,75.82
2022-12-08T08:13:23.318Z,75.74
2022-12-08T08:14:25.703Z,75.69
2022-12-08T08:15:29.532Z,75.15
2022-12-08T08:16:38.176Z,74.74
2022-12-08T08:17:41.088Z,74.14
2022-12-08T08:18:48.181Z,74.71
2022-12-08T08:19:51.687Z,75.25
2022-12-08T08:20:54.223Z,75.10
2022-12-08T08:21:57.565Z,74.55
2022-12-08T08:23:01.116Z,73.83
2022-12-08T08:24:03.488Z,73.80
2022-12-08T08:25:07.437Z,73.11
2022-12-08T08:26:10.888Z,73.32
2022-12-08T08:27:13.895Z,74.45
2022-12-08T08:28:17.523Z,74.17
2022-12-08T08:29:19.896Z,73.38
2022-12-08T08:30:23.318Z,72.88
2022-12-08T08:31:26.155Z,72.99
2022-12-08T08:32:29.547Z,72.61
2022-12-08T08:33:33.023Z,72.77
2022-12-08T08:34:38.173Z,73.29
2022-12-08T08:35:42.445Z,72.88
2022-12-08T08:36:44.930Z,74.09
2022-12-08T08:37:49.359Z,74.75
2022-12-08T08:38:52.569Z,74.82
2022-12-08T08:39:57.013Z,75.37
2022-12-08T08:41:03.020Z,75.07
2022-12-08T08:42:06.619Z,75.14
2022-12-08T08:43:10.314Z,74.53
2022-12-08T08:44:14.228Z,74.84
2022-12-08T08:45:17.689Z,74.77
2022-12-08T08:46:21.243Z,74.36
2022-12-08T08:47:25.035Z,74.67
2022-12-08T08:48:28.778Z,75.05
2022-12-08T08:49:32.325Z,75.31
2022-12-08T08:50:37.863Z,74.55
2022-12-08T08:51:41.429Z,74.59
2022-12-08T08:52:43.798Z,73.56
2022-12-08T08:53:47.423Z,75.20
2022-12-08T08:54:49.799Z,74.88
2022-12-08T08:55:53.571Z,74.00
2022-12-08T08:56:58.488Z,74.55
2022-12-08T08:58:00.815Z,74.30
2022-12-08T08:59:04.536Z,74.35
2022-12-08T09:00:10.269Z,73.60
2022-12-08T09:01:17.502Z,74.08
2022-12-08T09:02:21.706Z,73.93
2022-12-08T09:03:25.032Z,73.83
2022-12-08T09:04:27.645Z,73.67
2022-12-08T09:05:31.186Z,73.61
2022-12-08T09:06:35.032Z,73.72
2022-12-08T09:07:38.741Z,73.71
2022-12-08T09:08:42.527Z,73.42
2022-12-08T09:09:45.994Z,73.23
2022-12-08T09:10:48.368Z,72.89
2022-12-08T09:11:51.834Z,72.65
2022-12-08T09:12:55.246Z,73.25
2022-12-08T09:13:58.628Z,72.38
2022-12-08T09:15:01.120Z,73.10
2022-12-08T09:16:05.558Z,73.68
2022-12-08T09:17:09.368Z,73.51
2022-12-08T09:18:12.783Z,73.42
2022-12-08T09:19:16.351Z,73.23
2022-12-08T09:20:20.064Z,73.39
2022-12-08T09:21:24.172Z,73.51
2022-12-08T09:22:29.199Z,73.05
2022-12-08T09:23:35.558Z,73.08
2022-12-08T09:24:39.378Z,73.99
2022-12-08T09:25:44.996Z,74.24
2022-12-08T09:26:48.902Z,73.59
2022-12-08T09:27:52.327Z,73.17
2022-12-08T09:28:56.448Z,73.16
2022-12-08T09:30:00.113Z,73.16
2022-12-08T09:31:02.884Z,73.62
2022-12-08T09:32:06.863Z,73.28
2022-12-08T09:33:10.639Z,72.74
2022-12-08T09:34:13.100Z,72.30
2022-12-08T09:35:16.591Z,72.18
2022-12-08T09:36:19.110Z,72.09
2022-12-08T09:37:22.619Z,71.88
2022-12-08T09:38:26.386Z,72.32
2022-12-08T09:39:30.026Z,72.73
2022-12-08T09:40:37.529Z,71.80
2022-12-08T09:41:48.505Z,72.52
2022-12-08T09:42:57.236Z,72.48
2022-12-08T09:44:10.365Z,72.14
2022-12-08T09:45:15.781Z,71.55
2022-12-08T09:46:20.712Z,71.21
2022-12-08T09:47:33.738Z,70.94
2022-12-08T09:48:41.385Z,70.89
2022-12-08T09:49:51.900Z,70.42
2022-12-08T09:50:57.876Z,69.38
2022-12-08T09:52:01.968Z,68.44
2022-12-08T09:53:09.974Z,67.96
2022-12-08T09:54:20.747Z,68.10
2022-12-08T09:55:30.629Z,67.88
2022-12-08T09:56:37.488Z,67.98
2022-12-08T09:57:40.959Z,67.71
2022-12-08T09:58:52.043Z,66.81
2022-12-08T09:59:59.679Z,67.57
2022-12-08T10:01:03.165Z,68.10
2022-12-08T10:02:21.379Z,67.42
2022-12-08T10:03:28.486Z,67.44
2022-12-08T10:04:35.368Z,67.85
2022-12-08T10:05:42.324Z,70.33
2022-12-08T10:06:53.575Z,68.01
2022-12-08T10:08:09.153Z,67.48
2022-12-08T10:09:28.988Z,66.64
2022-12-08T10:10:39.537Z,67.03
2022-12-08T10:11:52.749Z,66.98
2022-12-08T10:12:59.457Z,67.11
2022-12-08T10:14:16.310Z,67.24
2022-12-08T10:15:35.158Z,66.23
2022-12-08T10:16:42.613Z,66.27
2022-12-08T10:17:49.699Z,65.67
2022-12-08T10:18:59.570Z,65.50
2022-12-08T10:20:08.045Z,66.20
2022-12-08T10:21:18.321Z,65.79
2022-12-08T10:22:23.655Z,64.40
2022-12-08T10:23:34.616Z,64.92
2022-12-08T10:24:43.600Z,64.52
2022-12-08T10:25:48.938Z,65.62
2022-12-08T10:26:51.559Z,67.32
2022-12-08T10:27:56.231Z,65.37
2022-12-08T10:29:02.783Z,65.67
2022-12-08T10:30:12.141Z,64.61
2022-12-08T10:31:20.888Z,65.17
2022-12-08T10:32:25.885Z,64.93
2022-12-08T10:33:29.509Z,64.83
2022-12-08T10:34:33.228Z,64.76
2022-12-08T10:35:45.243Z,64.44
2022-12-08T10:36:50.552Z,63.82
2022-12-08T10:37:58.608Z,63.97
2022-12-08T10:39:02.931Z,64.12
2022-12-08T10:40:14.143Z,63.86
2022-12-08T10:41:18.847Z,65.18
2022-12-08T10:42:23.767Z,64.76
2022-12-08T10:43:29.051Z,64.56
2022-12-08T10:44:32.453Z,63.85
2022-12-08T10:45:41.940Z,63.59
2022-12-08T10:46:45.618Z,63.06
2022-12-08T10:47:58.874Z,64.21
2022-12-08T10:49:13.237Z,63.96
2022-12-08T10:50:21.987Z,64.48
2022-12-08T10:51:40.179Z,64.60
2022-12-08T10:52:43.760Z,64.36
2022-12-08T10:53:48.659Z,65.00
2022-12-08T10:54:53.479Z,65.07
2022-12-08T10:56:15.633Z,64.95
2022-12-08T10:57:21.990Z,65.75
2022-12-08T10:58:31.840Z,65.43
2022-12-08T10:59:35.522Z,65.89
2022-12-08T11:00:40.907Z,66.16
2022-12-08T11:01:48.442Z,66.57
2022-12-08T11:02:55.873Z,66.45
2022-12-08T11:04:01.440Z,66.97
2022-12-08T11:05:03.948Z,67.07
2022-12-08T11:06:16.272Z,66.86
2022-12-08T11:07:24.211Z,67.31
2022-12-08T11:08:29.096Z,67.92
2022-12-08T11:09:41.043Z,68.04
2022-12-08T11:10:46.487Z,67.97
2022-12-08T11:11:53.063Z,68.27
2022-12-08T11:12:58.059Z,68.74
2022-12-08T11:14:08.756Z,68.91
2022-12-08T11:15:17.170Z,69.16
2022-12-08T11:16:21.624Z,69.42
2022-12-08T11:17:26.657Z,69.98
2022-12-08T11:18:32.434Z,69.64
2022-12-08T11:19:38.577Z,69.82
2022-12-08T11:20:43.143Z,70.47
2022-12-08T11:21:47.721Z,70.81
2022-12-08T11:22:53.552Z,70.60
2022-12-08T11:23:56.983Z,71.03
2022-12-08T11:25:12.203Z,71.18
2022-12-08T11:26:27.068Z,71.22
2022-12-08T11:27:32.950Z,71.38
2022-12-08T11:28:36.450Z,72.04
2022-12-08T11:29:39.057Z,72.23
2022-12-08T11:30:49.187Z,72.25
2022-12-08T11:31:56.240Z,72.62
2022-12-08T11:33:02.301Z,72.86
2022-12-08T11:34:07.651Z,72.69
2022-12-08T11:35:24.618Z,72.58
2022-12-08T11:36:30.650Z,73.40
2022-12-08T11:37:39.246Z,73.33
2022-12-08T11:38:45.628Z,72.77
2022-12-08T11:39:53.877Z,72.97
2022-12-08T11:41:00.890Z,72.81
2022-12-08T11:42:07.844Z,72.93
2022-12-08T11:43:17.962Z,72.95
2022-12-08T11:44:28.489Z,73.40
2022-12-08T11:45:36.248Z,73.47
2022-12-08T11:46:47.652Z,73.37
2022-12-08T11:48:00.330Z,73.55
2022-12-08T11:49:07.140Z,73.31
2022-12-08T11:50:21.075Z,73.35
2022-12-08T11:51:31.752Z,73.60
2022-12-08T11:52:45.389Z,73.73
2022-12-08T11:54:01.770Z,74.23
2022-12-08T11:55:18.748Z,74.15
2022-12-08T11:56:26.366Z,73.95
2022-12-08T11:57:31.423Z,74.19
2022-12-08T11:58:42.471Z,74.26
2022-12-08T11:59:49.726Z,74.13
2022-12-08T12:00:53.189Z,74.35
2022-12-08T12:01:56.963Z,74.21
2022-12-08T12:03:09.002Z,74.39
2022-12-08T12:04:21.109Z,74.36
2022-12-08T12:06:05.256Z,73.87
2022-12-08T12:07:26.604Z,73.80
2022-12-08T12:08:46.765Z,73.93
2022-12-08T12:10:23.777Z,73.69
2022-12-08T12:11:52.630Z,73.51
2022-12-08T12:13:11.538Z,72.62
2022-12-08T12:14:36.139Z,72.39
2022-12-08T12:16:09.264Z,72.40
2022-12-08T12:17:32.664Z,72.05
2022-12-08T12:18:41.309Z,71.90
2022-12-08T12:19:48.210Z,72.17
2022-12-08T12:20:55.654Z,71.92
2022-12-08T12:21:59.693Z,72.13
2022-12-08T12:23:06.746Z,72.90
2022-12-08T12:24:22.265Z,73.30
2022-12-08T12:25:29.455Z,73.50
2022-12-08T12:26:36.452Z,73.24
2022-12-08T12:27:41.686Z,73.01
2022-12-08T12:28:50.303Z,73.41
2022-12-08T12:29:59.481Z,73.47
2022-12-08T12:31:03.924Z,73.45
2022-12-08T12:32:10.075Z,74.11
2022-12-08T12:33:17.985Z,74.13
2022-12-08T12:34:25.473Z,74.49
2022-12-08T12:35:37.445Z,74.21
2022-12-08T12:36:49.641Z,74.15
2022-12-08T12:37:53.116Z,74.18
2022-12-08T12:39:03.305Z,74.04
2022-12-08T12:40:16.824Z,73.83
2022-12-08T12:41:25.607Z,73.35
2022-12-08T12:42:41.683Z,73.25
2022-12-08T12:44:10.423Z,73.48
2022-12-08T12:45:26.710Z,73.75
2022-12-08T12:46:42.072Z,73.77
2022-12-08T12:47:54.073Z,74.11
2022-12-08T12:49:48.824Z,74.05
2022-12-08T12:50:52.692Z,73.98
2022-12-08T12:51:55.642Z,73.56
2022-12-08T12:53:00.844Z,73.40
2022-12-08T12:54:22.678Z,72.81
2022-12-08T12:55:52.263Z,72.94
2022-12-08T12:56:56.816Z,72.72
2022-12-08T12:57:59.552Z,72.93
2022-12-08T12:59:23.656Z,72.46
2022-12-08T13:00:28.415Z,72.59
2022-12-08T13:01:55.628Z,72.72
2022-12-08T13:03:00.044Z,72.49
2022-12-08T13:04:06.056Z,72.86
2022-12-08T13:05:15.811Z,72.65
2022-12-08T13:06:24.409Z,72.72
2022-12-08T13:07:30.665Z,73.35
2022-12-08T13:08:34.990Z,73.40
2022-12-08T13:09:39.854Z,73.48
2022-12-08T13:10:57.363Z,73.20
2022-12-08T13:12:03.292Z,73.60
2022-12-08T13:13:17.571Z,74.02
2022-12-08T13:14:34.418Z,74.26
2022-12-08T13:15:41.751Z,74.83
2022-12-08T13:16:45.379Z,74.89
2022-12-08T13:17:50.873Z,74.63
2022-12-08T13:18:58.026Z,74.51
2022-12-08T13:20:04.844Z,75.08
2022-12-08T13:21:15.202Z,75.40
2022-12-08T13:22:55.459Z,74.71
2022-12-08T13:24:19.933Z,74.63
2022-12-08T13:25:49.392Z,74.60
2022-12-08T13:27:31.324Z,75.00
2022-12-08T13:28:34.722Z,75.07
2022-12-08T13:29:38.913Z,75.78
2022-12-08T13:30:44.703Z,75.56
2022-12-08T13:31:51.404Z,76.41
2022-12-08T13:34:27.480Z,76.29
2022-12-08T13:35:30.771Z,76.43
2022-12-08T13:36:38.220Z,76.51
2022-12-08T13:37:53.823Z,76.20
2022-12-08T13:39:00.095Z,76.28
2022-12-08T13:40:06.959Z,76.71
2022-12-08T13:41:16.655Z,76.61
2022-12-08T13:42:26.224Z,76.48
2022-12-08T13:43:51.049Z,76.03
2022-12-08T13:45:24.161Z,76.58
2022-12-08T13:48:23.847Z,76.83
2022-12-08T13:53:34.181Z,76.87
2022-12-08T13:56:51.426Z,77.50
2022-12-08T13:57:11.528Z,77.39
2022-12-08T13:58:19.680Z,77.27
2022-12-08T13:59:30.478Z,77.29
2022-12-08T14:00:34.022Z,77.50
2022-12-08T14:01:46.054Z,77.74
2022-12-08T14:02:51.502Z,78.16
2022-12-08T14:04:30.914Z,78.61
2022-12-08T14:05:41.081Z,78.43
2022-12-08T14:06:49.351Z,78.63
2022-12-08T14:07:55.625Z,78.51
2022-12-08T14:09:08.670Z,78.42
2022-12-08T14:10:21.166Z,78.12
2022-12-08T14:11:34.326Z,78.35
2022-12-08T14:12:38.739Z,78.34
2022-12-08T14:13:41.120Z,78.48
2022-12-08T14:15:03.093Z,79.04
2022-12-08T14:16:15.594Z,79.34
2022-12-08T14:17:22.139Z,79.41
2022-12-08T14:18:27.000Z,78.81
2022-12-08T14:19:32.067Z,78.83
2022-12-08T14:20:57.775Z,79.12
2022-12-08T14:22:02.393Z,79.08
2022-12-08T14:23:09.259Z,79.15
2022-12-08T14:24:13.363Z,78.93
2022-12-08T14:25:18.263Z,78.89
2022-12-08T14:26:20.711Z,78.80
2022-12-08T14:27:26.013Z,79.18
2022-12-08T14:28:29.864Z,79.01
2022-12-08T14:29:40.385Z,79.06